sensor_id;sensor_type;location;lat;lon;timestamp;temperature;humidity
28010;DHT22;15334;49.494;8.410;2023-03-20T00:01:26;10.20;99.90
28010;DHT22;15334;49.494;8.410;2023-03-20T00:03:56;10.20;99.90
28010;DHT22;15334;49.494;8.410;2023-03-20T00:06:26;10.20;99.90
28010;DHT22;15334;49.494;8.410;2023-03-20T00:08:55;10.20;99.90
28010;DHT22;15334;49.494;8.410;2023-03-20T00:11:27;10.20;99.90
28010;DHT22;15334;49.494;8.410;2023-03-20T00:13:58;10.20;99.90
28010;DHT22;15334;49.494;8.410;2023-03-20T00:16:30;10.20;99.90
28010;DHT22;15334;49.494;8.410;2023-03-20T00:19:02;10.30;99.90
28010;DHT22;15334;49.494;8.410;2023-03-20T00:21:31;10.20;99.90
28010;DHT22;15334;49.494;8.410;2023-03-20T00:23:59;10.20;99.90
28010;DHT22;15334;49.494;8.410;2023-03-20T00:26:31;10.20;99.90
28010;DHT22;15334;49.494;8.410;2023-03-20T00:29:00;10.20;99.90
28010;DHT22;15334;49.494;8.410;2023-03-20T00:31:32;10.20;99.90
28010;DHT22;15334;49.494;8.410;2023-03-20T00:34:03;10.20;99.90
28010;DHT22;15334;49.494;8.410;2023-03-20T00:36:32;10.20;99.90
28010;DHT22;15334;49.494;8.410;2023-03-20T00:39:00;10.20;99.90
28010;DHT22;15334;49.494;8.410;2023-03-20T00:41:30;10.20;99.90
28010;DHT22;15334;49.494;8.410;2023-03-20T00:44:02;10.20;99.90
28010;DHT22;15334;49.494;8.410;2023-03-20T00:46:35;10.30;99.90
28010;DHT22;15334;49.494;8.410;2023-03-20T00:49:05;10.30;99.90
28010;DHT22;15334;49.494;8.410;2023-03-20T00:51:33;10.30;99.90
28010;DHT22;15334;49.494;8.410;2023-03-20T00:54:04;10.30;99.90
28010;DHT22;15334;49.494;8.410;2023-03-20T00:56:35;10.40;99.90
28010;DHT22;15334;49.494;8.410;2023-03-20T00:59:05;10.40;99.90
28010;DHT22;15334;49.494;8.410;2023-03-20T01:01:35;10.40;99.90
28010;DHT22;15334;49.494;8.410;2023-03-20T01:04:10;10.30;99.90
28010;DHT22;15334;49.494;8.410;2023-03-20T01:06:38;10.40;99.90
28010;DHT22;15334;49.494;8.410;2023-03-20T01:09:06;10.40;99.90
28010;DHT22;15334;49.494;8.410;2023-03-20T01:11:34;10.40;99.90
28010;DHT22;15334;49.494;8.410;2023-03-20T01:14:03;10.40;99.90
28010;DHT22;15334;49.494;8.410;2023-03-20T01:16:31;10.40;99.90
28010;DHT22;15334;49.494;8.410;2023-03-20T01:19:01;10.40;99.90
28010;DHT22;15334;49.494;8.410;2023-03-20T01:21:29;10.40;99.90
28010;DHT22;15334;49.494;8.410;2023-03-20T01:23:57;10.50;99.90
28010;DHT22;15334;49.494;8.410;2023-03-20T01:26:30;10.50;99.90
28010;DHT22;15334;49.494;8.410;2023-03-20T01:28:59;10.50;99.90
28010;DHT22;15334;49.494;8.410;2023-03-20T01:31:27;10.50;99.90
28010;DHT22;15334;49.494;8.410;2023-03-20T01:33:55;10.50;99.90
28010;DHT22;15334;49.494;8.410;2023-03-20T01:36:24;10.50;99.90
28010;DHT22;15334;49.494;8.410;2023-03-20T01:38:55;10.50;99.90
28010;DHT22;15334;49.494;8.410;2023-03-20T01:41:24;10.50;99.90
28010;DHT22;15334;49.494;8.410;2023-03-20T01:43:53;10.50;99.90
28010;DHT22;15334;49.494;8.410;2023-03-20T01:46:23;10.50;99.90
28010;DHT22;15334;49.494;8.410;2023-03-20T01:49:03;10.50;99.90
28010;DHT22;15334;49.494;8.410;2023-03-20T01:51:33;10.50;99.90
28010;DHT22;15334;49.494;8.410;2023-03-20T01:54:06;10.50;99.90
28010;DHT22;15334;49.494;8.410;2023-03-20T01:56:38;10.50;99.90
28010;DHT22;15334;49.494;8.410;2023-03-20T01:59:11;10.40;99.90
28010;DHT22;15334;49.494;8.410;2023-03-20T02:01:41;10.50;99.90
28010;DHT22;15334;49.494;8.410;2023-03-20T02:04:11;10.40;99.90
28010;DHT22;15334;49.494;8.410;2023-03-20T02:06:42;10.40;99.90
28010;DHT22;15334;49.494;8.410;2023-03-20T02:09:11;10.40;99.90
28010;DHT22;15334;49.494;8.410;2023-03-20T02:11:39;10.30;99.90
28010;DHT22;15334;49.494;8.410;2023-03-20T02:14:08;10.30;99.90
28010;DHT22;15334;49.494;8.410;2023-03-20T02:16:36;10.30;99.90
28010;DHT22;15334;49.494;8.410;2023-03-20T02:19:08;10.30;99.90
28010;DHT22;15334;49.494;8.410;2023-03-20T02:25:00;10.30;99.90
28010;DHT22;15334;49.494;8.410;2023-03-20T02:27:48;10.20;99.90
28010;DHT22;15334;49.494;8.410;2023-03-20T02:30:45;10.20;99.90
28010;DHT22;15334;49.494;8.410;2023-03-20T02:34:01;10.20;99.90
28010;DHT22;15334;49.494;8.410;2023-03-20T02:39:54;10.20;99.90
28010;DHT22;15334;49.494;8.410;2023-03-20T02:42:33;10.20;99.90
28010;DHT22;15334;49.494;8.410;2023-03-20T02:45:09;10.20;99.90
28010;DHT22;15334;49.494;8.410;2023-03-20T02:47:44;10.20;99.90
28010;DHT22;15334;49.494;8.410;2023-03-20T02:50:17;10.30;99.90
28010;DHT22;15334;49.494;8.410;2023-03-20T02:52:48;10.30;99.90
28010;DHT22;15334;49.494;8.410;2023-03-20T02:55:26;10.30;99.90
28010;DHT22;15334;49.494;8.410;2023-03-20T02:58:00;10.40;99.90
28010;DHT22;15334;49.494;8.410;2023-03-20T03:00:32;10.40;99.90
28010;DHT22;15334;49.494;8.410;2023-03-20T03:03:07;10.40;99.90
28010;DHT22;15334;49.494;8.410;2023-03-20T03:05:40;10.40;99.90
28010;DHT22;15334;49.494;8.410;2023-03-20T03:08:11;10.40;99.90
28010;DHT22;15334;49.494;8.410;2023-03-20T03:10:43;10.40;99.90
28010;DHT22;15334;49.494;8.410;2023-03-20T03:13:14;10.40;99.90
28010;DHT22;15334;49.494;8.410;2023-03-20T03:15:45;10.40;99.90
28010;DHT22;15334;49.494;8.410;2023-03-20T03:18:18;10.30;99.90
28010;DHT22;15334;49.494;8.410;2023-03-20T03:20:48;10.30;99.90
28010;DHT22;15334;49.494;8.410;2023-03-20T03:23:24;10.20;99.90
28010;DHT22;15334;49.494;8.410;2023-03-20T03:25:55;10.10;99.90
28010;DHT22;15334;49.494;8.410;2023-03-20T03:28:30;10.10;99.90
28010;DHT22;15334;49.494;8.410;2023-03-20T03:31:04;10.10;99.90
28010;DHT22;15334;49.494;8.410;2023-03-20T03:33:36;10.00;99.90
28010;DHT22;15334;49.494;8.410;2023-03-20T03:36:10;10.00;99.90
28010;DHT22;15334;49.494;8.410;2023-03-20T03:38:44;10.10;99.90
28010;DHT22;15334;49.494;8.410;2023-03-20T03:41:24;10.10;99.90
28010;DHT22;15334;49.494;8.410;2023-03-20T03:44:02;10.10;99.90
28010;DHT22;15334;49.494;8.410;2023-03-20T03:46:38;10.10;99.90
28010;DHT22;15334;49.494;8.410;2023-03-20T03:49:14;10.10;99.90
28010;DHT22;15334;49.494;8.410;2023-03-20T03:51:45;10.10;99.90
28010;DHT22;15334;49.494;8.410;2023-03-20T03:54:17;10.10;99.90
28010;DHT22;15334;49.494;8.410;2023-03-20T03:56:49;10.10;99.90
28010;DHT22;15334;49.494;8.410;2023-03-20T03:59:22;10.20;99.90
28010;DHT22;15334;49.494;8.410;2023-03-20T04:01:53;10.20;99.90
28010;DHT22;15334;49.494;8.410;2023-03-20T04:04:24;10.20;99.90
28010;DHT22;15334;49.494;8.410;2023-03-20T04:06:52;10.20;99.90
28010;DHT22;15334;49.494;8.410;2023-03-20T04:09:20;10.20;99.90
28010;DHT22;15334;49.494;8.410;2023-03-20T04:11:51;10.20;99.90
28010;DHT22;15334;49.494;8.410;2023-03-20T04:14:20;10.20;99.90
28010;DHT22;15334;49.494;8.410;2023-03-20T04:16:48;10.20;99.90
28010;DHT22;15334;49.494;8.410;2023-03-20T04:19:16;10.20;99.90
28010;DHT22;15334;49.494;8.410;2023-03-20T04:21:44;10.20;99.90
28010;DHT22;15334;49.494;8.410;2023-03-20T04:24:12;10.30;99.90
28010;DHT22;15334;49.494;8.410;2023-03-20T04:30:44;10.20;99.90
28010;DHT22;15334;49.494;8.410;2023-03-20T04:33:57;10.10;99.90
28010;DHT22;15334;49.494;8.410;2023-03-20T04:37:11;10.10;99.90
28010;DHT22;15334;49.494;8.410;2023-03-20T04:40:12;10.10;99.90
28010;DHT22;15334;49.494;8.410;2023-03-20T04:43:22;10.00;99.90
28010;DHT22;15334;49.494;8.410;2023-03-20T04:47:00;10.10;99.90
28010;DHT22;15334;49.494;8.410;2023-03-20T04:53:37;10.10;99.90
28010;DHT22;15334;49.494;8.410;2023-03-20T04:57:29;10.10;99.90
28010;DHT22;15334;49.494;8.410;2023-03-20T05:01:47;10.20;99.90
28010;DHT22;15334;49.494;8.410;2023-03-20T05:04:47;10.20;99.90
28010;DHT22;15334;49.494;8.410;2023-03-20T05:08:20;10.20;99.90
28010;DHT22;15334;49.494;8.410;2023-03-20T05:15:16;10.20;99.90
28010;DHT22;15334;49.494;8.410;2023-03-20T05:25:34;10.30;99.90
28010;DHT22;15334;49.494;8.410;2023-03-20T05:29:32;10.30;99.90
28010;DHT22;15334;49.494;8.410;2023-03-20T05:33:23;10.20;99.90
28010;DHT22;15334;49.494;8.410;2023-03-20T05:37:05;10.20;99.90
28010;DHT22;15334;49.494;8.410;2023-03-20T05:45:00;10.20;99.90
28010;DHT22;15334;49.494;8.410;2023-03-20T05:48:26;10.20;99.90
28010;DHT22;15334;49.494;8.410;2023-03-20T05:51:58;10.30;99.90
28010;DHT22;15334;49.494;8.410;2023-03-20T05:58:42;10.30;99.90
28010;DHT22;15334;49.494;8.410;2023-03-20T06:01:37;10.30;99.90
28010;DHT22;15334;49.494;8.410;2023-03-20T06:05:01;10.30;99.90
28010;DHT22;15334;49.494;8.410;2023-03-20T06:07:48;10.40;99.90
28010;DHT22;15334;49.494;8.410;2023-03-20T06:10:16;10.40;99.90
28010;DHT22;15334;49.494;8.410;2023-03-20T06:12:45;10.50;99.90
28010;DHT22;15334;49.494;8.410;2023-03-20T06:15:13;10.50;99.90
28010;DHT22;15334;49.494;8.410;2023-03-20T06:17:41;10.50;99.90
28010;DHT22;15334;49.494;8.410;2023-03-20T06:20:10;10.60;99.90
28010;DHT22;15334;49.494;8.410;2023-03-20T06:22:38;10.50;99.90
28010;DHT22;15334;49.494;8.410;2023-03-20T06:25:09;10.50;99.90
28010;DHT22;15334;49.494;8.410;2023-03-20T06:27:38;10.40;99.90
28010;DHT22;15334;49.494;8.410;2023-03-20T06:30:08;10.40;99.90
28010;DHT22;15334;49.494;8.410;2023-03-20T06:32:39;10.40;99.90
28010;DHT22;15334;49.494;8.410;2023-03-20T06:35:13;10.50;99.90
28010;DHT22;15334;49.494;8.410;2023-03-20T06:37:44;10.50;99.90
28010;DHT22;15334;49.494;8.410;2023-03-20T06:40:15;10.40;99.90
28010;DHT22;15334;49.494;8.410;2023-03-20T06:42:43;10.50;99.90
28010;DHT22;15334;49.494;8.410;2023-03-20T06:45:11;10.50;99.90
28010;DHT22;15334;49.494;8.410;2023-03-20T06:47:39;10.50;99.90
28010;DHT22;15334;49.494;8.410;2023-03-20T06:50:09;10.60;99.90
28010;DHT22;15334;49.494;8.410;2023-03-20T06:52:37;10.60;99.90
28010;DHT22;15334;49.494;8.410;2023-03-20T06:55:06;10.60;99.90
28010;DHT22;15334;49.494;8.410;2023-03-20T06:57:35;10.60;99.90
28010;DHT22;15334;49.494;8.410;2023-03-20T07:00:05;10.60;99.90
28010;DHT22;15334;49.494;8.410;2023-03-20T07:02:34;10.70;99.90
28010;DHT22;15334;49.494;8.410;2023-03-20T07:05:03;10.70;99.90
28010;DHT22;15334;49.494;8.410;2023-03-20T07:07:31;10.70;99.90
28010;DHT22;15334;49.494;8.410;2023-03-20T07:10:03;10.80;99.90
28010;DHT22;15334;49.494;8.410;2023-03-20T07:12:31;10.80;99.90
28010;DHT22;15334;49.494;8.410;2023-03-20T07:15:00;10.80;99.90
28010;DHT22;15334;49.494;8.410;2023-03-20T07:17:28;10.80;99.90
28010;DHT22;15334;49.494;8.410;2023-03-20T07:19:58;10.70;99.90
28010;DHT22;15334;49.494;8.410;2023-03-20T07:22:27;10.80;99.90
28010;DHT22;15334;49.494;8.410;2023-03-20T07:24:56;10.70;99.90
28010;DHT22;15334;49.494;8.410;2023-03-20T07:27:24;10.80;99.90
28010;DHT22;15334;49.494;8.410;2023-03-20T07:29:52;10.90;99.90
28010;DHT22;15334;49.494;8.410;2023-03-20T07:32:25;11.00;99.90
28010;DHT22;15334;49.494;8.410;2023-03-20T07:34:53;11.10;99.90
28010;DHT22;15334;49.494;8.410;2023-03-20T07:37:21;11.30;99.90
28010;DHT22;15334;49.494;8.410;2023-03-20T07:39:49;11.30;99.90
28010;DHT22;15334;49.494;8.410;2023-03-20T07:42:17;11.30;99.90
28010;DHT22;15334;49.494;8.410;2023-03-20T07:44:45;11.40;99.90
28010;DHT22;15334;49.494;8.410;2023-03-20T07:47:13;11.40;99.90
28010;DHT22;15334;49.494;8.410;2023-03-20T07:49:42;11.40;99.90
28010;DHT22;15334;49.494;8.410;2023-03-20T07:52:10;11.50;99.90
28010;DHT22;15334;49.494;8.410;2023-03-20T07:54:41;11.50;99.90
28010;DHT22;15334;49.494;8.410;2023-03-20T07:57:08;11.50;99.90
28010;DHT22;15334;49.494;8.410;2023-03-20T07:59:36;11.50;99.90
28010;DHT22;15334;49.494;8.410;2023-03-20T08:02:04;11.50;99.90
28010;DHT22;15334;49.494;8.410;2023-03-20T08:04:32;11.40;99.90
28010;DHT22;15334;49.494;8.410;2023-03-20T08:07:04;11.40;99.90
28010;DHT22;15334;49.494;8.410;2023-03-20T08:09:32;11.40;99.90
28010;DHT22;15334;49.494;8.410;2023-03-20T08:12:00;11.40;99.90
28010;DHT22;15334;49.494;8.410;2023-03-20T08:14:28;11.40;99.90
28010;DHT22;15334;49.494;8.410;2023-03-20T08:16:56;11.40;99.90
28010;DHT22;15334;49.494;8.410;2023-03-20T08:19:39;11.40;99.90
28010;DHT22;15334;49.494;8.410;2023-03-20T08:22:10;11.40;99.90
28010;DHT22;15334;49.494;8.410;2023-03-20T08:24:38;11.40;99.90
28010;DHT22;15334;49.494;8.410;2023-03-20T08:27:06;11.50;99.90
28010;DHT22;15334;49.494;8.410;2023-03-20T08:29:34;11.50;99.90
28010;DHT22;15334;49.494;8.410;2023-03-20T08:32:02;11.60;99.90
28010;DHT22;15334;49.494;8.410;2023-03-20T08:34:30;11.60;99.90
28010;DHT22;15334;49.494;8.410;2023-03-20T08:36:59;11.50;99.90
28010;DHT22;15334;49.494;8.410;2023-03-20T08:39:28;11.60;99.90
28010;DHT22;15334;49.494;8.410;2023-03-20T08:41:56;11.60;99.90
28010;DHT22;15334;49.494;8.410;2023-03-20T08:44:26;11.70;99.90
28010;DHT22;15334;49.494;8.410;2023-03-20T08:46:57;11.70;99.90
28010;DHT22;15334;49.494;8.410;2023-03-20T08:49:26;11.70;99.90
28010;DHT22;15334;49.494;8.410;2023-03-20T08:51:54;11.70;99.90
28010;DHT22;15334;49.494;8.410;2023-03-20T08:54:22;11.80;99.90
28010;DHT22;15334;49.494;8.410;2023-03-20T08:56:52;11.80;99.90
28010;DHT22;15334;49.494;8.410;2023-03-20T08:59:20;11.80;99.90
28010;DHT22;15334;49.494;8.410;2023-03-20T09:01:51;11.80;99.90
28010;DHT22;15334;49.494;8.410;2023-03-20T09:04:21;12.00;99.90
28010;DHT22;15334;49.494;8.410;2023-03-20T09:06:49;12.00;99.90
28010;DHT22;15334;49.494;8.410;2023-03-20T09:09:18;12.00;99.90
28010;DHT22;15334;49.494;8.410;2023-03-20T09:11:57;12.00;99.90
28010;DHT22;15334;49.494;8.410;2023-03-20T09:14:27;12.10;99.90
28010;DHT22;15334;49.494;8.410;2023-03-20T09:16:55;12.20;99.90
28010;DHT22;15334;49.494;8.410;2023-03-20T09:19:26;12.20;99.90
28010;DHT22;15334;49.494;8.410;2023-03-20T09:21:56;12.20;99.90
28010;DHT22;15334;49.494;8.410;2023-03-20T09:24:24;12.20;99.90
28010;DHT22;15334;49.494;8.410;2023-03-20T09:26:52;12.20;99.90
28010;DHT22;15334;49.494;8.410;2023-03-20T09:29:22;12.30;99.90
28010;DHT22;15334;49.494;8.410;2023-03-20T09:31:51;12.40;99.90
28010;DHT22;15334;49.494;8.410;2023-03-20T09:34:19;12.40;99.90
28010;DHT22;15334;49.494;8.410;2023-03-20T09:36:54;12.60;99.90
28010;DHT22;15334;49.494;8.410;2023-03-20T09:39:23;12.60;99.90
28010;DHT22;15334;49.494;8.410;2023-03-20T09:41:51;12.70;99.90
28010;DHT22;15334;49.494;8.410;2023-03-20T09:44:40;12.80;99.90
28010;DHT22;15334;49.494;8.410;2023-03-20T09:47:16;12.70;99.90
28010;DHT22;15334;49.494;8.410;2023-03-20T09:50:07;12.70;99.90
28010;DHT22;15334;49.494;8.410;2023-03-20T09:52:42;12.70;99.90
28010;DHT22;15334;49.494;8.410;2023-03-20T09:55:15;12.60;99.90
28010;DHT22;15334;49.494;8.410;2023-03-20T09:57:46;12.60;99.90
28010;DHT22;15334;49.494;8.410;2023-03-20T10:00:19;12.60;99.90
28010;DHT22;15334;49.494;8.410;2023-03-20T10:02:52;12.50;99.90
28010;DHT22;15334;49.494;8.410;2023-03-20T10:05:23;12.60;99.90
28010;DHT22;15334;49.494;8.410;2023-03-20T10:07:58;12.60;99.90
28010;DHT22;15334;49.494;8.410;2023-03-20T10:10:36;12.60;99.90
28010;DHT22;15334;49.494;8.410;2023-03-20T10:13:15;12.50;99.90
28010;DHT22;15334;49.494;8.410;2023-03-20T10:15:50;12.50;99.90
28010;DHT22;15334;49.494;8.410;2023-03-20T10:18:25;12.50;99.90
28010;DHT22;15334;49.494;8.410;2023-03-20T10:21:00;12.40;99.90
28010;DHT22;15334;49.494;8.410;2023-03-20T10:23:34;12.30;99.90
28010;DHT22;15334;49.494;8.410;2023-03-20T10:26:09;12.20;99.90
28010;DHT22;15334;49.494;8.410;2023-03-20T10:28:41;12.10;99.90
28010;DHT22;15334;49.494;8.410;2023-03-20T10:31:40;12.10;99.90
28010;DHT22;15334;49.494;8.410;2023-03-20T10:34:23;12.20;99.90
28010;DHT22;15334;49.494;8.410;2023-03-20T10:37:03;12.10;99.90
28010;DHT22;15334;49.494;8.410;2023-03-20T10:39:50;12.20;99.90
28010;DHT22;15334;49.494;8.410;2023-03-20T10:42:24;12.30;99.90
28010;DHT22;15334;49.494;8.410;2023-03-20T10:44:58;12.40;99.90
28010;DHT22;15334;49.494;8.410;2023-03-20T10:47:34;12.60;99.90
28010;DHT22;15334;49.494;8.410;2023-03-20T10:50:07;12.90;99.90
28010;DHT22;15334;49.494;8.410;2023-03-20T10:52:46;13.10;99.90
28010;DHT22;15334;49.494;8.410;2023-03-20T10:55:20;13.50;99.90
28010;DHT22;15334;49.494;8.410;2023-03-20T10:57:51;13.70;99.90
28010;DHT22;15334;49.494;8.410;2023-03-20T11:00:24;14.10;99.90
28010;DHT22;15334;49.494;8.410;2023-03-20T11:02:54;14.50;99.90
28010;DHT22;15334;49.494;8.410;2023-03-20T11:05:29;14.90;99.90
28010;DHT22;15334;49.494;8.410;2023-03-20T11:08:04;14.90;99.90
28010;DHT22;15334;49.494;8.410;2023-03-20T11:10:35;14.40;99.90
28010;DHT22;15334;49.494;8.410;2023-03-20T11:13:21;14.30;99.90
28010;DHT22;15334;49.494;8.410;2023-03-20T11:18:53;14.40;99.90
28010;DHT22;15334;49.494;8.410;2023-03-20T11:21:27;15.00;99.90
28010;DHT22;15334;49.494;8.410;2023-03-20T11:23:58;15.20;99.90
28010;DHT22;15334;49.494;8.410;2023-03-20T11:26:34;15.40;99.90
28010;DHT22;15334;49.494;8.410;2023-03-20T11:29:05;16.90;99.90
28010;DHT22;15334;49.494;8.410;2023-03-20T11:31:37;18.40;99.90
28010;DHT22;15334;49.494;8.410;2023-03-20T11:34:32;18.50;99.90
28010;DHT22;15334;49.494;8.410;2023-03-20T11:37:22;17.90;99.90
28010;DHT22;15334;49.494;8.410;2023-03-20T11:39:58;17.20;99.90
28010;DHT22;15334;49.494;8.410;2023-03-20T11:42:28;16.80;99.90
28010;DHT22;15334;49.494;8.410;2023-03-20T11:44:59;16.50;99.90
28010;DHT22;15334;49.494;8.410;2023-03-20T11:47:31;16.40;99.90
28010;DHT22;15334;49.494;8.410;2023-03-20T11:50:12;16.10;99.90
28010;DHT22;15334;49.494;8.410;2023-03-20T11:52:51;16.20;99.90
28010;DHT22;15334;49.494;8.410;2023-03-20T11:55:24;16.20;99.90
28010;DHT22;15334;49.494;8.410;2023-03-20T11:57:56;16.50;99.90
28010;DHT22;15334;49.494;8.410;2023-03-20T12:00:37;16.60;99.90
28010;DHT22;15334;49.494;8.410;2023-03-20T12:03:34;16.80;99.90
28010;DHT22;15334;49.494;8.410;2023-03-20T12:06:08;16.60;99.90
28010;DHT22;15334;49.494;8.410;2023-03-20T12:08:45;16.50;99.90
28010;DHT22;15334;49.494;8.410;2023-03-20T12:14:11;16.40;99.90
28010;DHT22;15334;49.494;8.410;2023-03-20T12:16:43;16.00;99.90
28010;DHT22;15334;49.494;8.410;2023-03-20T12:19:13;15.80;99.90
28010;DHT22;15334;49.494;8.410;2023-03-20T12:21:45;15.70;99.90
28010;DHT22;15334;49.494;8.410;2023-03-20T12:24:18;15.70;99.90
28010;DHT22;15334;49.494;8.410;2023-03-20T12:26:53;15.70;99.90
28010;DHT22;15334;49.494;8.410;2023-03-20T12:29:29;15.60;99.90
28010;DHT22;15334;49.494;8.410;2023-03-20T12:32:02;15.60;99.90
28010;DHT22;15334;49.494;8.410;2023-03-20T12:34:35;15.50;99.90
28010;DHT22;15334;49.494;8.410;2023-03-20T12:37:08;15.60;99.90
28010;DHT22;15334;49.494;8.410;2023-03-20T12:39:41;15.50;99.90
28010;DHT22;15334;49.494;8.410;2023-03-20T12:42:18;15.50;99.90
28010;DHT22;15334;49.494;8.410;2023-03-20T12:44:51;15.60;99.90
28010;DHT22;15334;49.494;8.410;2023-03-20T12:47:40;15.50;99.90
28010;DHT22;15334;49.494;8.410;2023-03-20T12:50:20;15.50;99.90
28010;DHT22;15334;49.494;8.410;2023-03-20T12:53:07;15.60;99.90
28010;DHT22;15334;49.494;8.410;2023-03-20T12:55:44;16.00;99.90
28010;DHT22;15334;49.494;8.410;2023-03-20T12:58:26;16.60;99.90
28010;DHT22;15334;49.494;8.410;2023-03-20T13:01:02;17.60;99.90
28010;DHT22;15334;49.494;8.410;2023-03-20T13:03:47;18.30;99.90
28010;DHT22;15334;49.494;8.410;2023-03-20T13:06:23;18.80;99.90
28010;DHT22;15334;49.494;8.410;2023-03-20T13:09:27;18.90;99.30
28010;DHT22;15334;49.494;8.410;2023-03-20T13:12:06;18.70;99.90
28010;DHT22;15334;49.494;8.410;2023-03-20T13:14:42;18.90;98.10
28010;DHT22;15334;49.494;8.410;2023-03-20T13:17:18;19.10;97.60
28010;DHT22;15334;49.494;8.410;2023-03-20T13:19:54;19.60;98.10
28010;DHT22;15334;49.494;8.410;2023-03-20T13:22:33;19.60;96.00
28010;DHT22;15334;49.494;8.410;2023-03-20T13:25:20;19.10;95.10
28010;DHT22;15334;49.494;8.410;2023-03-20T13:27:54;18.40;96.00
28010;DHT22;15334;49.494;8.410;2023-03-20T13:30:25;17.70;97.10
28010;DHT22;15334;49.494;8.410;2023-03-20T13:33:03;17.10;98.00
28010;DHT22;15334;49.494;8.410;2023-03-20T13:35:40;16.70;98.00
28010;DHT22;15334;49.494;8.410;2023-03-20T13:38:19;16.40;97.80
28010;DHT22;15334;49.494;8.410;2023-03-20T13:40:52;16.30;99.70
28010;DHT22;15334;49.494;8.410;2023-03-20T13:43:27;16.30;99.60
28010;DHT22;15334;49.494;8.410;2023-03-20T13:46:01;16.40;99.10
28010;DHT22;15334;49.494;8.410;2023-03-20T13:48:35;16.40;99.00
28010;DHT22;15334;49.494;8.410;2023-03-20T13:51:10;16.30;99.10
28010;DHT22;15334;49.494;8.410;2023-03-20T13:53:52;16.40;99.90
28010;DHT22;15334;49.494;8.410;2023-03-20T13:56:28;16.40;97.70
28010;DHT22;15334;49.494;8.410;2023-03-20T13:59:24;16.40;97.60
28010;DHT22;15334;49.494;8.410;2023-03-20T14:02:03;16.50;97.40
28010;DHT22;15334;49.494;8.410;2023-03-20T14:04:34;16.50;98.30
28010;DHT22;15334;49.494;8.410;2023-03-20T14:07:26;16.50;98.40
28010;DHT22;15334;49.494;8.410;2023-03-20T14:09:54;16.60;96.20
28010;DHT22;15334;49.494;8.410;2023-03-20T14:12:25;16.60;95.70
28010;DHT22;15334;49.494;8.410;2023-03-20T14:14:55;16.40;98.20
28010;DHT22;15334;49.494;8.410;2023-03-20T14:17:25;16.30;95.30
28010;DHT22;15334;49.494;8.410;2023-03-20T14:19:54;16.20;95.50
28010;DHT22;15334;49.494;8.410;2023-03-20T14:22:25;16.10;95.30
28010;DHT22;15334;49.494;8.410;2023-03-20T14:24:59;16.20;95.80
28010;DHT22;15334;49.494;8.410;2023-03-20T14:27:36;16.30;95.80
28010;DHT22;15334;49.494;8.410;2023-03-20T14:30:41;16.30;95.60
28010;DHT22;15334;49.494;8.410;2023-03-20T14:33:29;16.00;95.30
28010;DHT22;15334;49.494;8.410;2023-03-20T14:36:26;15.90;96.30
28010;DHT22;15334;49.494;8.410;2023-03-20T14:39:03;15.80;96.30
28010;DHT22;15334;49.494;8.410;2023-03-20T14:41:38;15.90;95.10
28010;DHT22;15334;49.494;8.410;2023-03-20T14:44:23;15.80;95.60
28010;DHT22;15334;49.494;8.410;2023-03-20T14:47:03;16.00;95.60
28010;DHT22;15334;49.494;8.410;2023-03-20T14:57:54;15.80;95.50
28010;DHT22;15334;49.494;8.410;2023-03-20T15:01:57;15.60;95.50
28010;DHT22;15334;49.494;8.410;2023-03-20T15:05:31;15.40;96.10
28010;DHT22;15334;49.494;8.410;2023-03-20T15:13:22;15.10;96.00
28010;DHT22;15334;49.494;8.410;2023-03-20T15:33:01;14.30;95.00
28010;DHT22;15334;49.494;8.410;2023-03-20T15:43:53;14.30;95.60
28010;DHT22;15334;49.494;8.410;2023-03-20T15:47:12;14.20;94.80
28010;DHT22;15334;49.494;8.410;2023-03-20T15:50:41;14.20;94.00
28010;DHT22;15334;49.494;8.410;2023-03-20T15:53:45;14.20;95.20
28010;DHT22;15334;49.494;8.410;2023-03-20T15:57:36;14.10;94.80
28010;DHT22;15334;49.494;8.410;2023-03-20T16:00:57;14.10;95.80
28010;DHT22;15334;49.494;8.410;2023-03-20T16:04:16;14.20;94.10
28010;DHT22;15334;49.494;8.410;2023-03-20T16:11:32;14.00;93.10
28010;DHT22;15334;49.494;8.410;2023-03-20T16:15:17;13.90;92.30
28010;DHT22;15334;49.494;8.410;2023-03-20T16:31:02;13.50;94.10
28010;DHT22;15334;49.494;8.410;2023-03-20T16:37:59;13.30;94.10
28010;DHT22;15334;49.494;8.410;2023-03-20T16:41:34;13.40;94.40
28010;DHT22;15334;49.494;8.410;2023-03-20T16:56:56;13.20;94.40
28010;DHT22;15334;49.494;8.410;2023-03-20T17:00:57;13.20;94.50
28010;DHT22;15334;49.494;8.410;2023-03-20T17:08:10;13.00;94.30
28010;DHT22;15334;49.494;8.410;2023-03-20T17:11:28;12.90;94.70
28010;DHT22;15334;49.494;8.410;2023-03-20T17:14:00;12.90;95.60
28010;DHT22;15334;49.494;8.410;2023-03-20T17:16:30;12.80;95.10
28010;DHT22;15334;49.494;8.410;2023-03-20T17:19:04;12.90;95.50
28010;DHT22;15334;49.494;8.410;2023-03-20T17:21:33;12.90;96.10
28010;DHT22;15334;49.494;8.410;2023-03-20T17:24:01;12.90;95.70
28010;DHT22;15334;49.494;8.410;2023-03-20T17:26:29;12.90;97.00
28010;DHT22;15334;49.494;8.410;2023-03-20T17:28:59;12.90;96.10
28010;DHT22;15334;49.494;8.410;2023-03-20T17:31:27;12.80;96.20
28010;DHT22;15334;49.494;8.410;2023-03-20T17:33:55;12.80;95.50
28010;DHT22;15334;49.494;8.410;2023-03-20T17:36:25;12.80;96.60
28010;DHT22;15334;49.494;8.410;2023-03-20T17:38:54;12.80;97.10
28010;DHT22;15334;49.494;8.410;2023-03-20T17:41:23;12.80;97.60
28010;DHT22;15334;49.494;8.410;2023-03-20T17:43:52;12.80;97.20
28010;DHT22;15334;49.494;8.410;2023-03-20T17:46:26;12.70;97.00
28010;DHT22;15334;49.494;8.410;2023-03-20T17:48:57;12.70;97.70
28010;DHT22;15334;49.494;8.410;2023-03-20T17:51:27;12.60;97.80
28010;DHT22;15334;49.494;8.410;2023-03-20T17:53:55;12.50;98.00
28010;DHT22;15334;49.494;8.410;2023-03-20T17:56:25;12.50;98.40
28010;DHT22;15334;49.494;8.410;2023-03-20T17:58:58;12.40;98.70
28010;DHT22;15334;49.494;8.410;2023-03-20T18:01:28;12.30;99.10
28010;DHT22;15334;49.494;8.410;2023-03-20T18:04:00;12.20;99.00
28010;DHT22;15334;49.494;8.410;2023-03-20T18:06:30;12.30;99.30
28010;DHT22;15334;49.494;8.410;2023-03-20T18:08:59;12.30;99.20
28010;DHT22;15334;49.494;8.410;2023-03-20T18:11:29;12.40;99.30
28010;DHT22;15334;49.494;8.410;2023-03-20T18:13:59;12.40;99.00
28010;DHT22;15334;49.494;8.410;2023-03-20T18:16:29;12.40;99.20
28010;DHT22;15334;49.494;8.410;2023-03-20T18:18:58;12.40;99.90
28010;DHT22;15334;49.494;8.410;2023-03-20T18:21:27;12.40;99.90
28010;DHT22;15334;49.494;8.410;2023-03-20T18:23:55;12.40;99.90
28010;DHT22;15334;49.494;8.410;2023-03-20T18:26:25;12.40;99.90
28010;DHT22;15334;49.494;8.410;2023-03-20T18:28:55;12.40;99.90
28010;DHT22;15334;49.494;8.410;2023-03-20T18:31:23;12.40;99.90
28010;DHT22;15334;49.494;8.410;2023-03-20T18:33:53;12.40;99.90